createdAt,value
2019-05-16T00:01:09.585Z,13.60
2019-05-16T00:03:42.015Z,13.60
2019-05-16T00:06:14.321Z,13.70
2019-05-16T00:08:48.061Z,13.60
2019-05-16T00:11:20.148Z,13.60
2019-05-16T00:13:52.199Z,13.70
2019-05-16T00:16:24.301Z,13.70
2019-05-16T00:18:58.294Z,13.60
2019-05-16T00:21:30.845Z,13.70
2019-05-16T00:24:02.962Z,13.70
2019-05-16T00:26:34.870Z,13.70
2019-05-16T00:29:08.028Z,13.70
2019-05-16T00:31:40.321Z,13.70
2019-05-16T00:34:12.539Z,13.70
2019-05-16T00:36:44.898Z,13.70
2019-05-16T00:39:18.752Z,13.70
2019-05-16T00:41:50.963Z,13.70
2019-05-16T00:44:23.054Z,13.70
2019-05-16T00:46:54.870Z,13.70
2019-05-16T00:49:28.055Z,13.70
2019-05-16T00:52:00.047Z,13.70
2019-05-16T00:54:32.398Z,13.70
2019-05-16T00:57:08.540Z,13.70
2019-05-16T00:59:40.755Z,13.70
2019-05-16T01:02:13.929Z,13.70
2019-05-16T01:04:46.022Z,13.70
2019-05-16T01:07:18.669Z,13.70
2019-05-16T01:09:51.102Z,13.70
2019-05-16T01:12:23.081Z,13.70
2019-05-16T01:14:55.263Z,13.70
2019-05-16T01:17:28.498Z,13.80
2019-05-16T01:20:00.638Z,13.70
2019-05-16T01:22:32.651Z,13.70
2019-05-16T01:25:04.797Z,13.80
2019-05-16T01:27:38.549Z,13.80
2019-05-16T01:30:11.062Z,13.80
2019-05-16T01:32:43.277Z,13.80
2019-05-16T01:35:15.522Z,13.80
2019-05-16T01:37:48.869Z,13.80
2019-05-16T01:40:21.302Z,13.80
2019-05-16T01:42:53.384Z,13.80
2019-05-16T01:45:27.673Z,13.80
2019-05-16T01:47:59.454Z,13.80
2019-05-16T01:50:32.228Z,13.90
2019-05-16T01:53:08.619Z,13.90
2019-05-16T01:55:40.638Z,13.80
2019-05-16T01:58:12.634Z,13.90
2019-05-16T02:00:52.233Z,13.80
2019-05-16T02:03:18.999Z,13.90
2019-05-16T02:05:51.462Z,13.80
2019-05-16T02:08:24.168Z,13.90
2019-05-16T02:10:58.280Z,13.90
2019-05-16T02:13:30.274Z,13.90
2019-05-16T02:16:02.370Z,13.90
2019-05-16T02:18:34.311Z,13.90
2019-05-16T02:21:07.847Z,13.90
2019-05-16T02:23:40.271Z,13.90
2019-05-16T02:26:12.227Z,13.90
2019-05-16T02:28:44.425Z,13.90
2019-05-16T02:31:16.562Z,13.90
2019-05-16T02:33:51.048Z,13.90
2019-05-16T02:36:22.756Z,13.90
2019-05-16T02:38:55.868Z,13.90
2019-05-16T02:41:31.054Z,13.90
2019-05-16T02:44:02.203Z,13.90
2019-05-16T02:46:34.507Z,13.90
2019-05-16T02:49:06.961Z,13.90
2019-05-16T02:51:40.655Z,13.90
2019-05-16T02:54:13.107Z,13.90
2019-05-16T02:56:45.181Z,13.90
2019-05-16T02:59:20.348Z,14.00
2019-05-16T03:01:52.381Z,13.90
2019-05-16T03:04:25.116Z,14.00
2019-05-16T03:07:00.633Z,13.90
2019-05-16T03:09:35.110Z,14.00
2019-05-16T03:12:10.769Z,13.90
2019-05-16T03:14:43.604Z,13.90
2019-05-16T03:17:21.493Z,14.00
2019-05-16T03:19:57.189Z,14.00
2019-05-16T03:22:31.535Z,14.00
2019-05-16T03:25:04.246Z,14.00
2019-05-16T03:27:36.279Z,14.10
2019-05-16T03:30:14.338Z,14.00
2019-05-16T03:32:44.837Z,14.00
2019-05-16T03:35:17.020Z,14.00
2019-05-16T03:37:55.646Z,14.10
2019-05-16T03:40:26.889Z,14.10
2019-05-16T03:43:01.367Z,14.10
2019-05-16T03:45:33.196Z,14.10
2019-05-16T03:48:05.397Z,14.10
2019-05-16T03:50:41.042Z,14.10
2019-05-16T03:53:11.911Z,14.10
2019-05-16T03:55:44.069Z,14.10
2019-05-16T03:58:16.188Z,14.10
2019-05-16T04:00:54.338Z,14.10
2019-05-16T04:03:29.098Z,14.10
2019-05-16T04:06:01.523Z,14.10
2019-05-16T04:08:34.500Z,14.10
2019-05-16T04:11:06.715Z,14.20
2019-05-16T04:13:41.143Z,14.20
2019-05-16T04:16:12.544Z,14.10
2019-05-16T04:18:45.530Z,14.10
2019-05-16T04:21:20.855Z,14.20
2019-05-16T04:23:51.125Z,14.20
2019-05-16T04:26:23.363Z,14.20
2019-05-16T04:28:55.575Z,14.10
2019-05-16T04:31:30.547Z,14.20
2019-05-16T04:34:02.062Z,14.20
2019-05-16T04:36:34.689Z,14.20
2019-05-16T04:39:12.795Z,14.20
2019-05-16T04:41:45.980Z,14.20
2019-05-16T04:44:21.055Z,14.20
2019-05-16T04:46:51.970Z,14.20
2019-05-16T04:49:24.318Z,14.20
2019-05-16T04:51:56.814Z,14.20
2019-05-16T04:54:30.858Z,14.20
2019-05-16T04:57:02.384Z,14.20
2019-05-16T04:59:34.581Z,14.20
2019-05-16T05:02:06.712Z,14.20
2019-05-16T05:04:41.325Z,14.20
2019-05-16T05:07:12.666Z,14.30
2019-05-16T05:09:44.701Z,14.30
2019-05-16T05:12:16.886Z,14.40
2019-05-16T05:14:51.039Z,14.40
2019-05-16T05:17:23.594Z,14.40
2019-05-16T05:19:55.761Z,14.40
2019-05-16T05:22:30.420Z,14.50
2019-05-16T05:25:02.889Z,14.50
2019-05-16T05:27:35.280Z,14.50
2019-05-16T05:30:10.279Z,14.50
2019-05-16T05:32:41.583Z,14.60
2019-05-16T05:35:14.199Z,14.60
2019-05-16T05:37:46.304Z,14.60
2019-05-16T05:40:20.107Z,14.60
2019-05-16T05:42:52.630Z,14.60
2019-05-16T05:45:24.782Z,14.60
2019-05-16T05:47:56.850Z,14.60
2019-05-16T05:50:30.699Z,14.70
2019-05-16T05:53:02.951Z,14.60
2019-05-16T05:55:34.987Z,14.70
2019-05-16T05:58:09.882Z,14.70
2019-05-16T06:00:41.170Z,14.70
2019-05-16T06:03:13.573Z,14.70
2019-05-16T06:05:45.807Z,14.80
2019-05-16T06:08:19.943Z,14.70
2019-05-16T06:10:51.666Z,14.80
2019-05-16T06:13:23.882Z,14.80
2019-05-16T06:15:56.154Z,14.80
2019-05-16T06:18:30.499Z,14.80
2019-05-16T06:21:02.753Z,14.80
2019-05-16T06:23:34.973Z,14.90
2019-05-16T06:26:06.942Z,14.80
2019-05-16T06:28:41.320Z,14.90
2019-05-16T06:31:14.465Z,14.90
2019-05-16T06:33:47.007Z,14.90
2019-05-16T06:36:20.375Z,15.00
2019-05-16T06:38:53.203Z,15.00
2019-05-16T06:41:25.197Z,15.10
2019-05-16T06:43:57.256Z,15.10
2019-05-16T06:46:30.711Z,15.20
2019-05-16T06:49:03.110Z,15.20
2019-05-16T06:51:35.926Z,15.30
2019-05-16T06:54:10.093Z,15.30
2019-05-16T06:56:42.007Z,15.30
2019-05-16T06:59:14.196Z,15.40
2019-05-16T07:01:46.757Z,15.40
2019-05-16T07:04:20.061Z,15.50
2019-05-16T07:06:58.907Z,15.60
2019-05-16T07:09:26.636Z,15.70
2019-05-16T07:11:59.881Z,15.80
2019-05-16T07:14:33.210Z,15.90
2019-05-16T07:17:05.383Z,16.00
2019-05-16T07:19:37.964Z,16.20
2019-05-16T07:22:11.211Z,16.30
2019-05-16T07:24:43.324Z,16.40
2019-05-16T07:27:15.355Z,16.40
2019-05-16T07:29:50.632Z,16.40
2019-05-16T07:32:21.722Z,16.30
2019-05-16T07:34:54.155Z,16.30
2019-05-16T07:37:27.245Z,16.40
2019-05-16T07:40:08.453Z,16.30
2019-05-16T07:42:33.084Z,16.50
2019-05-16T07:45:06.039Z,16.70
2019-05-16T07:47:40.189Z,16.60
2019-05-16T07:50:12.058Z,16.80
2019-05-16T07:52:44.145Z,16.80
2019-05-16T07:55:16.728Z,16.90
2019-05-16T07:57:50.483Z,16.90
2019-05-16T08:00:45.844Z,16.90
2019-05-16T08:02:56.686Z,16.40
2019-05-16T08:05:29.969Z,16.40
2019-05-16T08:08:02.671Z,16.60
2019-05-16T08:10:41.818Z,16.80
2019-05-16T08:16:22.485Z,17.30
2019-05-16T08:18:54.330Z,17.80
2019-05-16T08:21:27.716Z,18.40
2019-05-16T08:24:06.409Z,19.10
2019-05-16T08:26:38.798Z,19.30
2019-05-16T08:29:07.689Z,19.20
2019-05-16T08:31:42.965Z,18.90
2019-05-16T08:34:13.039Z,18.60
2019-05-16T08:36:45.051Z,18.60
2019-05-16T08:39:16.974Z,18.50
2019-05-16T08:41:51.936Z,18.70
2019-05-16T08:44:23.151Z,18.80
2019-05-16T08:46:58.227Z,18.70
2019-05-16T08:49:30.635Z,18.20
2019-05-16T08:52:02.107Z,17.80
2019-05-16T08:54:33.885Z,17.70
2019-05-16T08:57:25.468Z,17.40
2019-05-16T08:59:41.047Z,17.30
2019-05-16T09:02:12.736Z,17.20
2019-05-16T09:04:44.877Z,17.20
2019-05-16T09:07:16.685Z,17.10
2019-05-16T09:09:51.611Z,16.90
2019-05-16T09:12:21.695Z,16.90
2019-05-16T09:14:53.341Z,16.60
2019-05-16T09:17:27.714Z,16.50
2019-05-16T09:19:58.380Z,16.50
2019-05-16T09:22:30.208Z,16.40
2019-05-16T09:25:02.092Z,16.20
2019-05-16T09:27:34.029Z,16.10
2019-05-16T09:30:07.205Z,15.90
2019-05-16T09:32:42.541Z,15.80
2019-05-16T09:35:13.515Z,15.70
2019-05-16T09:37:47.344Z,15.50
2019-05-16T09:40:20.158Z,15.50
2019-05-16T09:42:53.029Z,15.40
2019-05-16T09:45:27.250Z,15.30
2019-05-16T09:47:59.720Z,15.30
2019-05-16T09:50:31.632Z,15.20
2019-05-16T09:53:03.489Z,15.20
2019-05-16T09:55:37.206Z,15.20
2019-05-16T09:58:08.565Z,15.20
2019-05-16T10:00:40.464Z,15.20
2019-05-16T10:03:12.271Z,15.30
2019-05-16T10:05:46.513Z,15.30
2019-05-16T10:08:17.534Z,15.30
2019-05-16T10:10:49.361Z,15.20
2019-05-16T10:13:21.333Z,15.20
2019-05-16T10:15:53.148Z,15.10
2019-05-16T10:18:27.521Z,15.10
2019-05-16T10:20:59.374Z,15.00
2019-05-16T10:23:32.234Z,15.00
2019-05-16T10:26:03.917Z,15.00
2019-05-16T10:28:38.349Z,15.20
2019-05-16T10:31:08.433Z,15.40
2019-05-16T10:33:39.923Z,15.40
2019-05-16T10:36:11.857Z,15.50
2019-05-16T10:38:43.386Z,15.70
2019-05-16T10:41:15.183Z,15.80
2019-05-16T10:43:47.689Z,16.00
2019-05-16T10:46:19.657Z,16.20
2019-05-16T10:48:51.429Z,16.30
2019-05-16T10:51:23.958Z,16.30
2019-05-16T10:54:09.012Z,16.40
2019-05-16T10:56:29.610Z,16.50
2019-05-16T10:59:38.363Z,16.60
2019-05-16T11:01:36.567Z,16.70
2019-05-16T11:04:07.659Z,16.70
2019-05-16T11:06:39.516Z,16.60
2019-05-16T11:09:11.495Z,16.50
2019-05-16T11:11:44.395Z,16.50
2019-05-16T11:14:17.366Z,16.40
2019-05-16T11:16:50.405Z,16.30
2019-05-16T11:19:24.734Z,16.30
2019-05-16T11:21:57.313Z,16.50
2019-05-16T11:24:29.368Z,16.50
2019-05-16T11:27:01.843Z,16.60
2019-05-16T11:29:33.674Z,16.70
2019-05-16T11:32:06.930Z,16.90
2019-05-16T11:34:38.548Z,17.00
2019-05-16T11:37:10.336Z,17.10
2019-05-16T11:39:42.204Z,17.00
2019-05-16T11:42:13.890Z,17.00
2019-05-16T11:44:47.882Z,17.00
2019-05-16T11:47:19.066Z,16.90
2019-05-16T11:49:50.689Z,16.80
2019-05-16T11:52:22.574Z,16.80
2019-05-16T11:54:54.188Z,16.80
2019-05-16T11:57:25.886Z,16.80
2019-05-16T11:59:57.586Z,16.80
2019-05-16T12:02:29.302Z,16.80
2019-05-16T12:05:01.209Z,16.80
2019-05-16T12:07:34.725Z,16.80
2019-05-16T12:10:07.536Z,16.90
2019-05-16T12:12:40.426Z,17.20
2019-05-16T12:15:13.273Z,17.10
2019-05-16T12:18:00.239Z,17.00
2019-05-16T12:20:19.539Z,17.00
2019-05-16T12:22:51.214Z,16.80
2019-05-16T12:25:22.915Z,17.00
2019-05-16T12:27:56.763Z,17.10
2019-05-16T12:30:29.224Z,17.20
2019-05-16T12:33:00.951Z,17.40
2019-05-16T12:35:32.655Z,17.60
2019-05-16T12:38:07.788Z,17.60
2019-05-16T12:40:38.064Z,17.70
2019-05-16T12:43:09.938Z,17.80
2019-05-16T12:45:41.858Z,17.90
2019-05-16T12:48:16.670Z,17.90
2019-05-16T12:50:47.954Z,17.80
2019-05-16T12:53:23.537Z,17.80
2019-05-16T12:55:53.448Z,17.60
2019-05-16T12:58:36.961Z,17.80
2019-05-16T13:00:58.642Z,17.80
2019-05-16T13:03:30.155Z,17.80
2019-05-16T13:06:02.110Z,17.90
2019-05-16T13:08:33.980Z,17.90
2019-05-16T13:11:07.080Z,17.90
2019-05-16T13:13:39.309Z,17.80
2019-05-16T13:16:11.381Z,17.50
2019-05-16T13:18:43.176Z,17.20
2019-05-16T13:21:17.887Z,17.20
2019-05-16T13:23:47.968Z,17.10
2019-05-16T13:26:19.576Z,17.00
2019-05-16T13:28:51.744Z,17.10
2019-05-16T13:31:23.428Z,17.20
2019-05-16T13:33:56.823Z,17.30
2019-05-16T13:36:28.458Z,17.30
2019-05-16T13:39:01.052Z,17.20
2019-05-16T13:41:34.592Z,17.10
2019-05-16T13:44:17.610Z,17.40
2019-05-16T13:46:39.854Z,17.50
2019-05-16T13:49:11.635Z,17.70
2019-05-16T13:51:43.440Z,17.80
2019-05-16T13:54:17.704Z,17.90
2019-05-16T13:56:49.430Z,18.00
2019-05-16T13:59:21.153Z,17.80
2019-05-16T14:01:53.130Z,17.60
2019-05-16T14:04:26.446Z,17.50
2019-05-16T14:06:58.886Z,17.50
2019-05-16T14:09:30.784Z,17.50
2019-05-16T14:12:02.551Z,17.50
2019-05-16T14:14:38.987Z,17.50
2019-05-16T14:17:14.080Z,17.50
2019-05-16T14:19:40.984Z,17.40
2019-05-16T14:22:12.842Z,17.60
2019-05-16T14:24:44.720Z,17.60
2019-05-16T14:27:17.286Z,17.80
2019-05-16T14:29:49.447Z,17.80
2019-05-16T14:32:21.247Z,18.10
2019-05-16T14:34:52.644Z,18.40
2019-05-16T14:37:26.706Z,18.50
2019-05-16T14:40:01.077Z,18.70
2019-05-16T14:42:31.856Z,18.70
2019-05-16T14:45:11.546Z,18.80
2019-05-16T14:47:37.985Z,18.80
2019-05-16T14:50:13.843Z,19.10
2019-05-16T14:52:43.481Z,19.10
2019-05-16T14:55:18.055Z,18.80
2019-05-16T14:57:48.620Z,18.90
2019-05-16T15:00:20.780Z,19.00
2019-05-16T15:02:52.446Z,18.90
2019-05-16T15:05:23.820Z,19.10
2019-05-16T15:07:56.946Z,18.90
2019-05-16T15:10:28.061Z,19.00
2019-05-16T15:12:59.523Z,19.20
2019-05-16T15:15:30.985Z,19.10
2019-05-16T15:18:02.692Z,19.30
2019-05-16T15:20:34.011Z,19.20
2019-05-16T15:23:07.705Z,19.20
2019-05-16T15:25:39.716Z,19.20
2019-05-16T15:28:11.541Z,19.20
2019-05-16T15:30:43.280Z,19.10
2019-05-16T15:33:19.430Z,19.10
2019-05-16T15:35:48.494Z,19.10
2019-05-16T15:38:20.451Z,19.20
2019-05-16T15:40:52.219Z,19.30
2019-05-16T15:43:24.243Z,19.30
2019-05-16T15:46:00.378Z,19.50
2019-05-16T15:48:29.720Z,19.90
2019-05-16T15:51:02.540Z,20.00
2019-05-16T15:53:36.273Z,20.10
2019-05-16T15:56:10.410Z,20.10
2019-05-16T15:58:41.332Z,20.20
2019-05-16T16:01:13.037Z,20.30
2019-05-16T16:03:47.067Z,20.20
2019-05-16T16:06:17.909Z,20.10
2019-05-16T16:08:49.542Z,19.90
2019-05-16T16:11:21.160Z,20.00
2019-05-16T16:13:54.131Z,20.00
2019-05-16T16:16:26.766Z,20.00
2019-05-16T16:18:58.853Z,20.00
2019-05-16T16:21:30.152Z,20.00
2019-05-16T16:24:04.911Z,20.00
2019-05-16T16:26:38.008Z,19.90
2019-05-16T16:29:08.641Z,19.90
2019-05-16T16:31:40.267Z,19.90
2019-05-16T16:34:12.184Z,19.80
2019-05-16T16:36:43.822Z,19.80
2019-05-16T16:39:15.657Z,19.80
2019-05-16T16:41:47.987Z,19.60
2019-05-16T16:44:21.201Z,19.40
2019-05-16T16:46:54.004Z,19.40
2019-05-16T16:49:28.006Z,19.30
2019-05-16T16:51:59.783Z,19.30
2019-05-16T16:54:31.567Z,19.30
2019-05-16T16:57:03.460Z,19.30
2019-05-16T16:59:37.158Z,19.20
2019-05-16T17:02:08.469Z,19.20
2019-05-16T17:04:40.256Z,19.20
2019-05-16T17:07:12.313Z,19.20
2019-05-16T17:09:44.308Z,19.20
2019-05-16T17:12:15.637Z,19.20
2019-05-16T17:14:47.461Z,19.10
2019-05-16T17:17:19.150Z,19.10
2019-05-16T17:19:50.835Z,19.00
2019-05-16T17:22:22.605Z,19.00
2019-05-16T17:24:56.516Z,18.90
2019-05-16T17:27:27.680Z,18.80
2019-05-16T17:30:00.823Z,18.70
2019-05-16T17:32:32.797Z,18.60
2019-05-16T17:35:06.633Z,18.60
2019-05-16T17:37:37.847Z,18.60
2019-05-16T17:40:11.338Z,18.50
2019-05-16T17:42:43.082Z,18.40
2019-05-16T17:45:14.880Z,18.40
2019-05-16T17:47:46.951Z,18.30
2019-05-16T17:50:19.591Z,18.20
2019-05-16T17:52:52.200Z,18.20
2019-05-16T17:55:24.185Z,18.10
2019-05-16T17:57:57.011Z,18.10
2019-05-16T18:00:29.419Z,18.20
2019-05-16T18:03:00.932Z,18.00
2019-05-16T18:05:32.462Z,17.90
2019-05-16T18:08:03.822Z,17.80
2019-05-16T18:10:36.623Z,17.80
2019-05-16T18:13:08.454Z,17.70
2019-05-16T18:15:39.748Z,17.70
2019-05-16T18:18:11.240Z,17.60
2019-05-16T18:20:54.956Z,17.60
2019-05-16T18:23:16.460Z,17.50
2019-05-16T18:25:48.052Z,17.60
2019-05-16T18:28:19.466Z,17.50
2019-05-16T18:30:50.774Z,17.40
2019-05-16T18:33:22.472Z,17.40
2019-05-16T18:35:54.363Z,17.40
2019-05-16T18:38:26.506Z,17.40
2019-05-16T18:40:58.163Z,17.30
2019-05-16T18:43:30.177Z,17.30
2019-05-16T18:46:01.890Z,17.20
2019-05-16T18:48:33.643Z,17.20
2019-05-16T18:51:06.734Z,17.10
2019-05-16T18:53:38.598Z,17.00
2019-05-16T18:56:10.254Z,16.90
2019-05-16T18:58:42.210Z,16.70
2019-05-16T19:01:13.928Z,16.70
2019-05-16T19:03:46.435Z,16.50
2019-05-16T19:06:18.225Z,16.50
2019-05-16T19:08:50.071Z,16.30
2019-05-16T19:11:21.413Z,16.20
2019-05-16T19:13:53.089Z,16.10
2019-05-16T19:16:26.263Z,16.00
2019-05-16T19:18:58.567Z,16.00
2019-05-16T19:21:32.076Z,15.90
2019-05-16T19:24:03.763Z,15.80
2019-05-16T19:26:37.351Z,15.70
2019-05-16T19:29:08.747Z,15.60
2019-05-16T19:31:40.229Z,15.50
2019-05-16T19:34:11.539Z,15.50
2019-05-16T19:36:43.027Z,15.40
2019-05-16T19:39:14.484Z,15.50
2019-05-16T19:41:46.622Z,15.40
2019-05-16T19:44:18.089Z,15.40
2019-05-16T19:46:49.835Z,15.50
2019-05-16T19:49:21.196Z,15.40
2019-05-16T19:51:52.608Z,15.40
2019-05-16T19:54:24.001Z,15.50
2019-05-16T19:56:56.519Z,15.50
2019-05-16T19:59:28.207Z,15.30
2019-05-16T20:01:59.643Z,15.40
2019-05-16T20:04:31.169Z,15.40
2019-05-16T20:07:02.795Z,15.40
2019-05-16T20:09:36.191Z,15.30
2019-05-16T20:12:07.837Z,15.30
2019-05-16T20:14:39.710Z,15.30
2019-05-16T20:17:12.090Z,15.30
2019-05-16T20:19:43.544Z,15.30
2019-05-16T20:22:16.650Z,15.20
2019-05-16T20:24:48.053Z,15.30
2019-05-16T20:27:19.664Z,15.20
2019-05-16T20:29:51.173Z,15.20
2019-05-16T20:32:22.544Z,15.30
2019-05-16T20:34:54.103Z,15.30
2019-05-16T20:37:26.541Z,15.30
2019-05-16T20:39:58.937Z,15.20
2019-05-16T20:42:30.368Z,15.30
2019-05-16T20:45:01.747Z,15.20
2019-05-16T20:47:33.138Z,15.30
2019-05-16T20:50:07.419Z,15.30
2019-05-16T20:52:38.318Z,15.30
2019-05-16T20:55:10.783Z,15.30
2019-05-16T20:57:42.193Z,15.30
2019-05-16T21:00:14.407Z,15.30
2019-05-16T21:02:46.554Z,15.30
2019-05-16T21:05:19.118Z,15.30
2019-05-16T21:07:51.533Z,15.30
2019-05-16T21:10:23.047Z,15.30
2019-05-16T21:12:54.526Z,15.30
2019-05-16T21:15:26.348Z,15.30
2019-05-16T21:17:57.921Z,15.30
2019-05-16T21:20:29.861Z,15.40
2019-05-16T21:23:01.435Z,15.30
2019-05-16T21:25:32.801Z,15.30
2019-05-16T21:28:04.258Z,15.30
2019-05-16T21:30:36.732Z,15.30
2019-05-16T21:33:08.258Z,15.30
2019-05-16T21:35:39.585Z,15.20
2019-05-16T21:38:11.058Z,15.30
2019-05-16T21:40:42.516Z,15.30
2019-05-16T21:43:13.902Z,15.20
2019-05-16T21:45:47.401Z,15.30
2019-05-16T21:48:20.193Z,15.20
2019-05-16T21:50:51.718Z,15.20
2019-05-16T21:53:23.170Z,15.20
2019-05-16T21:55:56.381Z,15.10
2019-05-16T21:58:29.513Z,15.10
2019-05-16T22:01:01.889Z,15.10
2019-05-16T22:03:36.687Z,15.10
2019-05-16T22:06:09.581Z,15.10
2019-05-16T22:08:41.726Z,15.10
2019-05-16T22:11:13.054Z,15.10
2019-05-16T22:13:46.363Z,15.10
2019-05-16T22:16:18.674Z,15.00
2019-05-16T22:18:51.017Z,15.10
2019-05-16T22:21:22.953Z,15.10
2019-05-16T22:23:54.353Z,15.10
2019-05-16T22:26:27.077Z,15.10
2019-05-16T22:28:58.882Z,15.10
2019-05-16T22:31:30.294Z,15.00
2019-05-16T22:34:01.770Z,15.00
2019-05-16T22:36:33.100Z,15.00
2019-05-16T22:39:06.797Z,15.00
2019-05-16T22:41:38.929Z,15.00
2019-05-16T22:44:10.414Z,15.00
2019-05-16T22:46:41.689Z,15.00
2019-05-16T22:49:13.195Z,15.00
2019-05-16T22:51:44.621Z,15.00
2019-05-16T22:54:17.231Z,14.90
2019-05-16T22:56:48.750Z,14.90
2019-05-16T22:59:20.232Z,14.90
2019-05-16T23:01:52.089Z,14.90
2019-05-16T23:04:23.696Z,14.90
2019-05-16T23:06:56.464Z,15.00
2019-05-16T23:09:28.020Z,14.90
2019-05-16T23:11:59.399Z,14.90
2019-05-16T23:14:30.820Z,15.00
2019-05-16T23:17:02.313Z,14.90
2019-05-16T23:19:33.839Z,14.90
2019-05-16T23:22:07.521Z,14.90
2019-05-16T23:24:38.721Z,14.90
2019-05-16T23:27:10.024Z,15.00
2019-05-16T23:29:41.534Z,15.00
2019-05-16T23:32:13.074Z,15.00
2019-05-16T23:34:46.505Z,15.00
2019-05-16T23:37:17.642Z,15.00
2019-05-16T23:39:49.011Z,15.00
2019-05-16T23:42:20.325Z,15.00
2019-05-16T23:44:51.789Z,14.90
2019-05-16T23:47:23.140Z,14.90
2019-05-16T23:49:56.655Z,14.90
2019-05-16T23:52:27.592Z,14.80
2019-05-16T23:54:58.982Z,14.90
2019-05-16T23:57:30.421Z,14.90
